createdAt,value
2019-05-03T00:00:02.801Z,11.10
2019-05-03T00:02:42.769Z,12.57
2019-05-03T00:05:13.810Z,10.63
2019-05-03T00:07:43.096Z,11.33
2019-05-03T00:10:13.039Z,11.37
2019-05-03T00:12:42.406Z,13.33
2019-05-03T00:15:28.727Z,10.60
2019-05-03T00:17:58.053Z,14.80
2019-05-03T00:20:27.565Z,11.33
2019-05-03T00:22:56.882Z,10.80
2019-05-03T00:25:27.010Z,15.43
2019-05-03T00:27:56.395Z,12.40
2019-05-03T00:30:25.915Z,11.87
2019-05-03T00:32:55.312Z,13.07
2019-05-03T00:35:35.122Z,15.00
2019-05-03T00:38:06.200Z,13.50
2019-05-03T00:40:35.601Z,13.83
2019-05-03T00:43:04.979Z,15.27
2019-05-03T00:45:34.303Z,13.40
2019-05-03T00:48:03.670Z,15.53
2019-05-03T00:50:32.979Z,14.63
2019-05-03T00:53:02.508Z,14.97
2019-05-03T00:55:32.788Z,15.30
2019-05-03T00:58:02.602Z,15.97
2019-05-03T01:00:32.387Z,16.07
2019-05-03T01:03:02.201Z,16.83
2019-05-03T01:05:33.171Z,17.53
2019-05-03T01:08:02.589Z,17.63
2019-05-03T01:10:33.061Z,21.33
2019-05-03T01:13:02.497Z,18.93
2019-05-03T01:15:36.724Z,17.50
2019-05-03T01:18:07.765Z,18.73
2019-05-03T01:20:37.054Z,18.37
2019-05-03T01:23:06.536Z,19.47
2019-05-03T01:25:35.845Z,19.23
2019-05-03T01:28:05.338Z,18.37
2019-05-03T01:30:34.649Z,16.20
2019-05-03T01:33:03.984Z,20.53
2019-05-03T01:35:33.520Z,18.90
2019-05-03T01:38:02.843Z,20.23
2019-05-03T01:40:32.718Z,16.37
2019-05-03T01:43:02.361Z,17.93
2019-05-03T01:45:31.996Z,17.90
2019-05-03T01:48:09.345Z,18.10
2019-05-03T01:50:40.299Z,18.43
2019-05-03T01:53:12.543Z,17.37
2019-05-03T01:55:52.295Z,17.30
2019-05-03T01:58:22.921Z,21.97
2019-05-03T02:01:12.608Z,21.13
2019-05-03T02:03:43.812Z,20.03
2019-05-03T02:06:13.182Z,21.10
2019-05-03T02:08:42.736Z,19.27
2019-05-03T02:11:12.106Z,20.40
2019-05-03T02:13:42.745Z,23.60
2019-05-03T02:16:12.134Z,22.73
2019-05-03T02:18:42.429Z,22.50
2019-05-03T02:21:12.320Z,22.70
2019-05-03T02:23:42.723Z,20.63
2019-05-03T02:26:11.954Z,23.67
2019-05-03T02:28:42.141Z,22.27
2019-05-03T02:31:13.718Z,27.77
2019-05-03T02:33:43.393Z,23.57
2019-05-03T02:36:13.734Z,23.53
2019-05-03T02:38:43.622Z,22.37
2019-05-03T02:41:13.651Z,24.47
2019-05-03T02:43:59.521Z,23.20
2019-05-03T02:46:35.863Z,24.10
2019-05-03T02:49:15.403Z,24.40
2019-05-03T02:51:46.099Z,26.47
2019-05-03T02:54:15.906Z,24.77
2019-05-03T02:56:45.997Z,25.47
2019-05-03T02:59:16.066Z,24.80
2019-05-03T03:01:46.749Z,26.13
2019-05-03T03:04:17.136Z,28.97
2019-05-03T03:06:47.798Z,29.23
2019-05-03T03:09:19.322Z,25.50
2019-05-03T03:11:50.937Z,27.67
2019-05-03T03:14:22.068Z,25.93
2019-05-03T03:16:52.103Z,28.50
2019-05-03T03:19:26.020Z,24.27
2019-05-03T03:21:57.871Z,24.70
2019-05-03T03:24:29.833Z,23.57
2019-05-03T03:27:01.062Z,21.53
2019-05-03T03:29:31.682Z,24.57
2019-05-03T03:32:11.443Z,21.53
2019-05-03T03:35:03.221Z,21.20
2019-05-03T03:37:29.855Z,22.80
2019-05-03T03:39:59.468Z,24.30
2019-05-03T03:42:31.187Z,21.80
2019-05-03T03:45:02.073Z,22.33
2019-05-03T03:47:35.872Z,24.73
2019-05-03T03:50:06.163Z,22.83
2019-05-03T03:52:36.980Z,25.77
2019-05-03T03:55:07.612Z,22.50
2019-05-03T03:57:37.181Z,24.07
2019-05-03T04:00:08.024Z,20.30
2019-05-03T04:02:39.165Z,18.10
2019-05-03T04:05:09.735Z,16.83
2019-05-03T04:07:39.287Z,17.73
2019-05-03T04:10:09.895Z,17.87
2019-05-03T04:12:40.520Z,17.17
2019-05-03T04:15:28.744Z,18.83
2019-05-03T04:18:08.646Z,13.97
2019-05-03T04:20:38.883Z,15.87
2019-05-03T04:23:08.303Z,14.27
2019-05-03T04:25:37.878Z,14.97
2019-05-03T04:28:08.142Z,11.57
2019-05-03T04:30:37.461Z,13.60
2019-05-03T04:33:07.034Z,13.77
2019-05-03T04:35:36.819Z,14.73
2019-05-03T04:38:06.277Z,11.27
2019-05-03T04:40:36.072Z,12.70
2019-05-03T04:43:06.264Z,12.77
2019-05-03T04:45:36.792Z,12.30
2019-05-03T04:48:06.726Z,11.50
2019-05-03T04:50:36.934Z,14.97
2019-05-03T04:53:06.335Z,12.83
2019-05-03T04:55:36.467Z,13.97
2019-05-03T04:58:06.015Z,16.20
2019-05-03T05:00:36.048Z,14.03
2019-05-03T05:03:06.057Z,14.83
2019-05-03T05:05:36.340Z,12.30
2019-05-03T05:08:06.253Z,13.63
2019-05-03T05:10:36.231Z,13.40
2019-05-03T05:13:05.813Z,13.90
2019-05-03T05:15:35.492Z,13.37
2019-05-03T05:18:16.330Z,15.43
2019-05-03T05:20:56.016Z,14.97
2019-05-03T05:23:25.373Z,11.83
2019-05-03T05:26:11.633Z,12.73
2019-05-03T05:28:45.967Z,13.63
2019-05-03T05:31:15.445Z,12.03
2019-05-03T05:33:44.857Z,14.47
2019-05-03T05:36:15.297Z,13.83
2019-05-03T05:38:45.163Z,12.73
2019-05-03T05:41:15.604Z,10.93
2019-05-03T05:43:45.033Z,14.33
2019-05-03T05:46:15.002Z,11.00
2019-05-03T05:48:45.914Z,16.37
2019-05-03T05:51:16.128Z,13.10
2019-05-03T05:53:45.542Z,15.80
2019-05-03T05:56:16.606Z,12.00
2019-05-03T05:58:47.661Z,17.17
2019-05-03T06:01:25.030Z,12.50
2019-05-03T06:03:55.125Z,12.07
2019-05-03T06:06:29.038Z,13.23
2019-05-03T06:08:59.965Z,10.33
2019-05-03T06:11:36.701Z,12.43
2019-05-03T06:14:24.531Z,12.03
2019-05-03T06:16:58.607Z,12.77
2019-05-03T06:19:29.541Z,9.43
2019-05-03T06:22:12.726Z,12.30
2019-05-03T06:24:45.223Z,11.83
2019-05-03T06:27:24.317Z,11.53
2019-05-03T06:29:54.916Z,10.30
2019-05-03T06:32:25.884Z,16.13
2019-05-03T06:34:55.191Z,12.97
2019-05-03T06:37:26.131Z,12.17
2019-05-03T06:39:55.443Z,16.17
2019-05-03T06:42:25.466Z,13.57
2019-05-03T06:44:59.188Z,14.53
2019-05-03T06:47:28.547Z,13.30
2019-05-03T06:49:57.842Z,13.43
2019-05-03T06:52:29.319Z,13.00
2019-05-03T06:55:00.399Z,10.20
2019-05-03T06:57:29.428Z,10.20
2019-05-03T07:00:16.239Z,10.97
2019-05-03T07:02:47.205Z,9.60
2019-05-03T07:05:21.129Z,8.00
2019-05-03T07:07:57.835Z,6.63
2019-05-03T07:10:38.059Z,6.73
2019-05-03T07:13:09.035Z,8.67
2019-05-03T07:15:38.321Z,5.43
2019-05-03T07:18:07.640Z,6.87
2019-05-03T07:20:50.597Z,6.77
2019-05-03T07:23:19.902Z,6.60
2019-05-03T07:25:49.173Z,6.47
2019-05-03T07:28:18.595Z,7.43
2019-05-03T07:30:47.877Z,5.13
2019-05-03T07:33:25.467Z,5.23
2019-05-03T07:35:55.207Z,6.70
2019-05-03T07:38:24.924Z,4.83
2019-05-03T07:40:55.020Z,5.90
2019-05-03T07:43:24.679Z,5.37
2019-05-03T07:45:55.273Z,5.50
2019-05-03T07:48:25.599Z,5.43
2019-05-03T07:50:55.039Z,9.40
2019-05-03T07:53:25.300Z,7.30
2019-05-03T07:56:05.373Z,6.30
2019-05-03T07:58:37.022Z,6.40
2019-05-03T08:01:25.174Z,6.27
2019-05-03T08:03:55.141Z,5.70
2019-05-03T08:06:24.895Z,5.57
2019-05-03T08:08:54.598Z,6.40
2019-05-03T08:11:24.891Z,5.30
2019-05-03T08:13:54.967Z,5.87
2019-05-03T08:16:25.259Z,5.70
2019-05-03T08:18:55.873Z,5.20
2019-05-03T08:21:25.485Z,7.37
2019-05-03T08:23:55.727Z,6.30
2019-05-03T08:26:25.897Z,5.33
2019-05-03T08:28:55.414Z,5.93
2019-05-03T08:31:26.641Z,6.30
2019-05-03T08:34:00.832Z,6.07
2019-05-03T08:36:31.770Z,5.37
2019-05-03T08:39:01.697Z,7.33
2019-05-03T08:41:32.752Z,7.10
2019-05-03T08:44:02.437Z,7.63
2019-05-03T08:46:32.018Z,9.07
2019-05-03T08:49:02.051Z,5.93
2019-05-03T08:51:31.365Z,5.60
2019-05-03T08:54:00.651Z,6.17
2019-05-03T08:56:30.237Z,5.83
2019-05-03T08:58:59.526Z,7.20
2019-05-03T09:01:28.902Z,7.13
2019-05-03T09:03:58.186Z,6.70
2019-05-03T09:06:27.487Z,6.10
2019-05-03T09:08:57.363Z,6.00
2019-05-03T09:11:34.007Z,5.67
2019-05-03T09:14:04.446Z,7.77
2019-05-03T09:16:35.447Z,7.97
2019-05-03T09:19:05.617Z,6.53
2019-05-03T09:21:35.486Z,7.87
2019-05-03T09:24:05.208Z,12.30
2019-05-03T09:26:35.152Z,7.10
2019-05-03T09:29:05.772Z,6.50
2019-05-03T09:31:35.365Z,6.40
2019-05-03T09:34:08.310Z,6.73
2019-05-03T09:36:37.384Z,8.27
2019-05-03T09:39:08.436Z,6.67
2019-05-03T09:41:37.819Z,9.27
2019-05-03T09:44:07.359Z,6.77
2019-05-03T09:46:36.657Z,7.30
2019-05-03T09:49:13.368Z,6.93
2019-05-03T09:51:37.148Z,5.20
2019-05-03T09:54:10.894Z,6.40
2019-05-03T09:57:00.164Z,6.13
2019-05-03T09:59:30.383Z,6.10
2019-05-03T10:02:01.130Z,5.83
2019-05-03T10:04:30.507Z,6.90
2019-05-03T10:06:59.832Z,6.10
2019-05-03T10:09:29.111Z,6.30
2019-05-03T10:11:58.975Z,5.63
2019-05-03T10:14:28.245Z,5.00
2019-05-03T10:17:05.548Z,6.10
2019-05-03T10:19:40.118Z,6.00
2019-05-03T10:22:06.255Z,5.47
2019-05-03T10:24:36.076Z,4.17
2019-05-03T10:27:05.714Z,6.27
2019-05-03T10:29:35.325Z,7.37
2019-05-03T10:32:21.546Z,6.63
2019-05-03T10:34:55.460Z,4.97
2019-05-03T10:37:29.611Z,6.50
2019-05-03T10:40:01.349Z,8.53
2019-05-03T10:42:31.263Z,5.23
2019-05-03T10:45:00.959Z,3.97
2019-05-03T10:47:30.296Z,5.60
2019-05-03T10:49:59.763Z,5.17
2019-05-03T10:52:30.682Z,4.53
2019-05-03T10:54:59.997Z,5.40
2019-05-03T10:57:30.916Z,8.13
2019-05-03T11:00:00.238Z,4.80
2019-05-03T11:02:35.117Z,5.27
2019-05-03T11:05:07.091Z,3.83
2019-05-03T11:07:36.394Z,5.10
2019-05-03T11:10:07.550Z,6.23
2019-05-03T11:12:36.836Z,5.20
2019-05-03T11:15:08.532Z,7.33
2019-05-03T11:17:37.848Z,5.90
2019-05-03T11:20:07.800Z,4.73
2019-05-03T11:22:37.126Z,8.40
2019-05-03T11:25:07.264Z,4.63
2019-05-03T11:27:38.197Z,5.07
2019-05-03T11:30:09.596Z,6.00
2019-05-03T11:32:55.734Z,5.33
2019-05-03T11:35:29.747Z,5.73
2019-05-03T11:38:00.716Z,5.20
2019-05-03T11:40:30.140Z,5.07
2019-05-03T11:43:01.252Z,4.63
2019-05-03T11:45:30.648Z,7.93
2019-05-03T11:48:00.699Z,7.10
2019-05-03T11:50:30.005Z,6.53
2019-05-03T11:52:59.292Z,6.03
2019-05-03T11:55:28.933Z,5.23
2019-05-03T11:57:58.236Z,6.67
2019-05-03T12:00:29.253Z,6.90
2019-05-03T12:03:00.211Z,5.07
2019-05-03T12:05:31.340Z,5.27
2019-05-03T12:08:00.699Z,6.50
2019-05-03T12:10:46.262Z,6.00
2019-05-03T12:13:05.653Z,4.33
2019-05-03T12:15:35.422Z,5.73
2019-05-03T12:18:07.781Z,5.03
2019-05-03T12:20:39.314Z,6.70
2019-05-03T12:23:09.674Z,5.93
2019-05-03T12:25:40.699Z,5.47
2019-05-03T12:28:10.718Z,5.77
2019-05-03T12:30:40.370Z,5.07
2019-05-03T12:33:09.875Z,5.50
2019-05-03T12:35:39.420Z,6.83
2019-05-03T12:38:08.743Z,7.13
2019-05-03T12:40:38.260Z,5.10
2019-05-03T12:43:07.745Z,4.87
2019-05-03T12:45:37.288Z,5.73
2019-05-03T12:48:06.888Z,5.70
2019-05-03T12:50:36.585Z,4.57
2019-05-03T12:53:06.225Z,6.03
2019-05-03T12:55:35.840Z,5.50
2019-05-03T12:58:06.293Z,7.43
2019-05-03T13:00:52.646Z,4.57
2019-05-03T13:03:26.362Z,6.07
2019-05-03T13:05:55.722Z,5.73
2019-05-03T13:08:35.978Z,8.00
2019-05-03T13:11:06.509Z,6.30
2019-05-03T13:13:36.244Z,5.07
2019-05-03T13:16:07.021Z,6.30
2019-05-03T13:18:36.332Z,7.13
2019-05-03T13:21:06.360Z,5.00
2019-05-03T13:23:35.936Z,5.80
2019-05-03T13:26:06.149Z,6.07
2019-05-03T13:28:35.974Z,4.63
2019-05-03T13:31:06.179Z,4.73
2019-05-03T13:33:35.816Z,4.47
2019-05-03T13:36:06.061Z,5.07
2019-05-03T13:38:35.410Z,6.30
2019-05-03T13:41:06.562Z,5.50
2019-05-03T13:43:36.101Z,7.93
2019-05-03T13:46:05.686Z,6.27
2019-05-03T13:48:42.560Z,5.63
2019-05-03T13:51:06.064Z,7.80
2019-05-03T13:53:35.566Z,9.00
2019-05-03T13:56:05.308Z,5.13
2019-05-03T13:58:35.910Z,5.90
2019-05-03T14:01:05.894Z,7.07
2019-05-03T14:03:36.008Z,6.07
2019-05-03T14:06:08.704Z,7.07
2019-05-03T14:08:36.462Z,9.00
2019-05-03T14:11:05.855Z,6.57
2019-05-03T14:13:35.721Z,6.90
2019-05-03T14:16:06.158Z,4.80
2019-05-03T14:18:36.017Z,8.93
2019-05-03T14:21:10.018Z,6.03
2019-05-03T14:23:57.223Z,7.57
2019-05-03T14:26:26.540Z,6.43
2019-05-03T14:28:55.895Z,5.13
2019-05-03T14:31:25.383Z,7.00
2019-05-03T14:33:55.829Z,8.63
2019-05-03T14:36:25.514Z,7.20
2019-05-03T14:38:55.108Z,7.93
2019-05-03T14:41:25.577Z,8.37
2019-05-03T14:43:55.805Z,8.43
2019-05-03T14:46:32.617Z,7.57
2019-05-03T14:48:56.487Z,8.43
2019-05-03T14:51:25.798Z,6.33
2019-05-03T14:53:57.018Z,9.03
2019-05-03T14:56:28.474Z,9.60
2019-05-03T14:59:15.584Z,7.67
2019-05-03T15:01:46.553Z,9.87
2019-05-03T15:04:15.839Z,8.57
2019-05-03T15:06:46.068Z,11.00
2019-05-03T15:09:18.605Z,10.03
2019-05-03T15:11:46.778Z,9.33
2019-05-03T15:14:16.092Z,8.27
2019-05-03T15:16:45.404Z,6.03
2019-05-03T15:19:14.898Z,8.17
2019-05-03T15:21:45.266Z,15.90
2019-05-03T15:24:14.733Z,9.43
2019-05-03T15:26:44.760Z,17.27
2019-05-03T15:29:15.593Z,6.83
2019-05-03T15:31:45.086Z,8.53
2019-05-03T15:34:15.225Z,7.90
2019-05-03T15:36:45.140Z,7.30
2019-05-03T15:39:15.447Z,8.00
2019-05-03T15:41:45.046Z,8.27
2019-05-03T15:44:18.851Z,6.60
2019-05-03T15:46:49.936Z,7.13
2019-05-03T15:49:19.234Z,9.03
2019-05-03T15:51:48.510Z,8.40
2019-05-03T15:54:17.888Z,8.00
2019-05-03T15:56:47.372Z,8.90
2019-05-03T15:59:16.843Z,6.97
2019-05-03T16:01:46.324Z,9.03
2019-05-03T16:04:15.644Z,7.87
2019-05-03T16:06:45.022Z,9.77
2019-05-03T16:09:15.400Z,8.07
2019-05-03T16:11:45.200Z,7.57
2019-05-03T16:14:15.324Z,9.47
2019-05-03T16:16:45.182Z,7.73
2019-05-03T16:19:14.781Z,8.63
2019-05-03T16:21:45.237Z,7.80
2019-05-03T16:24:15.446Z,8.33
2019-05-03T16:26:47.028Z,8.63
2019-05-03T16:29:16.597Z,10.17
2019-05-03T16:31:46.795Z,8.77
2019-05-03T16:34:16.119Z,11.63
2019-05-03T16:36:45.584Z,8.03
2019-05-03T16:39:15.440Z,11.37
2019-05-03T16:41:45.052Z,9.13
2019-05-03T16:44:14.644Z,10.83
2019-05-03T16:46:45.621Z,11.70
2019-05-03T16:49:15.703Z,9.83
2019-05-03T16:51:45.293Z,8.13
2019-05-03T16:54:16.408Z,10.00
2019-05-03T16:56:45.983Z,10.93
2019-05-03T16:59:17.490Z,8.97
2019-05-03T17:01:46.534Z,9.90
2019-05-03T17:04:25.079Z,8.43
2019-05-03T17:07:02.489Z,9.70
2019-05-03T17:09:45.468Z,11.80
2019-05-03T17:12:16.584Z,10.03
2019-05-03T17:14:46.488Z,9.87
2019-05-03T17:17:15.818Z,8.63
2019-05-03T17:19:45.944Z,9.50
2019-05-03T17:22:17.447Z,9.83
2019-05-03T17:24:46.581Z,9.73
2019-05-03T17:27:15.978Z,10.40
2019-05-03T17:29:46.523Z,12.43
2019-05-03T17:32:15.929Z,8.97
2019-05-03T17:34:45.436Z,12.03
2019-05-03T17:37:14.928Z,11.27
2019-05-03T17:39:48.822Z,12.37
2019-05-03T17:42:35.751Z,11.30
2019-05-03T17:45:06.372Z,9.50
2019-05-03T17:47:35.720Z,10.83
2019-05-03T17:50:07.308Z,11.70
2019-05-03T17:52:41.059Z,13.97
2019-05-03T17:55:12.464Z,10.93
2019-05-03T17:57:46.168Z,15.07
2019-05-03T18:00:20.476Z,9.60
2019-05-03T18:02:50.912Z,11.10
2019-05-03T18:05:37.771Z,11.63
2019-05-03T18:08:24.994Z,12.60
2019-05-03T18:10:56.381Z,11.93
2019-05-03T18:13:25.852Z,12.03
2019-05-03T18:15:55.206Z,11.10
2019-05-03T18:18:25.263Z,12.77
2019-05-03T18:20:55.495Z,9.80
2019-05-03T18:23:25.083Z,8.93
2019-05-03T18:25:54.835Z,12.07
2019-05-03T18:28:24.969Z,11.67
2019-05-03T18:30:54.832Z,10.67
2019-05-03T18:33:24.723Z,10.00
2019-05-03T18:35:55.033Z,10.63
2019-05-03T18:38:25.393Z,12.53
2019-05-03T18:40:55.384Z,10.13
2019-05-03T18:43:35.503Z,9.70
2019-05-03T18:46:23.059Z,11.87
2019-05-03T18:48:52.711Z,10.60
2019-05-03T18:51:22.268Z,13.40
2019-05-03T18:53:51.586Z,11.33
2019-05-03T18:56:20.988Z,11.47
2019-05-03T18:58:50.312Z,11.97
2019-05-03T19:01:19.797Z,10.80
2019-05-03T19:03:50.856Z,12.47
2019-05-03T19:06:20.151Z,10.67
2019-05-03T19:08:59.947Z,13.70
2019-05-03T19:11:31.004Z,17.87
2019-05-03T19:14:01.907Z,13.77
2019-05-03T19:16:38.855Z,12.57
2019-05-03T19:19:09.611Z,11.57
2019-05-03T19:21:39.384Z,12.10
2019-05-03T19:24:10.099Z,14.70
2019-05-03T19:26:39.812Z,15.17
2019-05-03T19:29:09.334Z,14.50
2019-05-03T19:31:39.580Z,17.03
2019-05-03T19:34:09.198Z,12.40
2019-05-03T19:36:38.533Z,19.87
2019-05-03T19:39:08.313Z,14.83
2019-05-03T19:41:38.057Z,13.67
2019-05-03T19:44:07.479Z,17.13
2019-05-03T19:46:37.229Z,11.93
2019-05-03T19:49:06.525Z,13.07
2019-05-03T19:51:36.540Z,13.47
2019-05-03T19:54:06.082Z,12.33
2019-05-03T19:56:35.492Z,12.73
2019-05-03T19:59:06.517Z,12.13
2019-05-03T20:01:40.676Z,12.90
2019-05-03T20:04:27.432Z,12.17
2019-05-03T20:06:58.396Z,14.53
2019-05-03T20:09:28.635Z,12.50
2019-05-03T20:11:58.347Z,11.70
2019-05-03T20:14:27.847Z,12.73
2019-05-03T20:16:57.269Z,13.13
2019-05-03T20:19:26.564Z,15.33
2019-05-03T20:21:56.646Z,12.57
2019-05-03T20:24:26.570Z,12.80
2019-05-03T20:26:56.572Z,14.40
2019-05-03T20:29:25.865Z,16.33
2019-05-03T20:31:55.387Z,12.83
2019-05-03T20:34:25.015Z,17.60
2019-05-03T20:36:54.928Z,15.50
2019-05-03T20:39:25.393Z,15.17
2019-05-03T20:41:55.241Z,14.07
2019-05-03T20:44:32.457Z,14.13
2019-05-03T20:47:04.413Z,13.70
2019-05-03T20:49:34.703Z,13.20
2019-05-03T20:52:04.830Z,15.10
2019-05-03T20:54:35.020Z,12.77
2019-05-03T20:57:05.499Z,14.47
2019-05-03T20:59:45.874Z,14.53
2019-05-03T21:02:08.964Z,14.20
2019-05-03T21:04:38.411Z,16.27
2019-05-03T21:07:08.450Z,16.47
2019-05-03T21:09:37.814Z,20.13
2019-05-03T21:12:07.427Z,20.67
2019-05-03T21:14:36.746Z,16.97
2019-05-03T21:17:10.783Z,16.20
2019-05-03T21:19:57.889Z,15.97
2019-05-03T21:22:28.462Z,15.23
2019-05-03T21:25:02.382Z,14.07
2019-05-03T21:27:31.760Z,14.73
2019-05-03T21:30:01.234Z,15.23
2019-05-03T21:32:30.638Z,15.00
2019-05-03T21:35:00.044Z,19.23
2019-05-03T21:37:29.409Z,16.27
2019-05-03T21:39:58.838Z,16.93
2019-05-03T21:42:28.136Z,17.30
2019-05-03T21:44:57.864Z,14.43
2019-05-03T21:47:40.862Z,18.33
2019-05-03T21:50:14.255Z,19.17
2019-05-03T21:52:43.495Z,14.63
2019-05-03T21:55:14.445Z,18.23
2019-05-03T21:57:44.991Z,17.57
2019-05-03T22:00:16.418Z,17.63
2019-05-03T22:02:45.781Z,18.63
2019-05-03T22:05:16.559Z,16.17
2019-05-03T22:07:45.909Z,18.47
2019-05-03T22:10:16.345Z,20.67
2019-05-03T22:12:45.641Z,18.67
2019-05-03T22:15:34.686Z,16.57
2019-05-03T22:18:11.750Z,19.03
2019-05-03T22:20:43.029Z,15.00
2019-05-03T22:23:19.717Z,15.97
2019-05-03T22:25:49.185Z,17.13
2019-05-03T22:28:18.810Z,15.27
2019-05-03T22:30:48.120Z,16.47
2019-05-03T22:33:17.558Z,19.57
2019-05-03T22:35:47.014Z,20.00
2019-05-03T22:38:16.729Z,17.83
2019-05-03T22:40:46.852Z,22.27
2019-05-03T22:43:16.628Z,16.97
2019-05-03T22:45:45.976Z,18.63
2019-05-03T22:48:16.056Z,18.83
2019-05-03T22:50:45.477Z,16.57
2019-05-03T22:53:14.873Z,16.30
2019-05-03T22:55:45.129Z,17.10
2019-05-03T22:58:15.405Z,16.30
2019-05-03T23:00:44.871Z,18.47
2019-05-03T23:03:14.679Z,18.70
2019-05-03T23:05:45.590Z,17.40
2019-05-03T23:08:15.154Z,16.30
2019-05-03T23:10:45.115Z,16.33
2019-05-03T23:13:15.428Z,15.90
2019-05-03T23:15:44.900Z,20.20
2019-05-03T23:18:14.348Z,18.10
2019-05-03T23:20:55.250Z,17.20
2019-05-03T23:23:42.545Z,18.33
2019-05-03T23:26:11.834Z,18.40
2019-05-03T23:28:41.146Z,23.43
2019-05-03T23:31:10.482Z,19.00
2019-05-03T23:33:39.921Z,19.70
2019-05-03T23:36:09.319Z,83.33
2019-05-03T23:38:39.088Z,122.93
2019-05-03T23:41:08.794Z,18.40
2019-05-03T23:43:38.115Z,23.87
2019-05-03T23:46:08.089Z,36.63
2019-05-03T23:48:37.646Z,50.83
2019-05-03T23:51:08.852Z,23.50
2019-05-03T23:53:38.300Z,40.27
2019-05-03T23:56:15.162Z,48.70
2019-05-03T23:58:44.655Z,26.87
